Terminal Aerodrome Forecast
Issued by NWS

Home | Current Version | Previous Version | Text Only | Print | Product List | Glossary On
Versions: 1 2 3 4 5 6 7 8 9 10 11 12
462
FTUS45 KRIW 041122
TAFLND
TAF
KLND 041122Z 0412/0512 VRB06KT P6SM SCT100
     FM041700 17009KT P6SM SCT100 WS020/27045KT
     FM051000 29013G21KT P6SM SCT070=

USA.gov is the U.S. government's official web portal to all federal, state and local government web resources and services.